Time;durP1;ratioP1;P1;durP2;ratioP2;P2;SDS_P1;SDS_P2;PMS_P1;PMS_P2;Temp;Humidity;BMP_temperature;BMP_pressure;BME280_temperature;BME280_humidity;BME280_pressure;Samples;Min_cycle;Max_cycle;Signal;HPM_P1;HPM_P2
2024/01/09 00:00:15;;;;;;;9.57;3.03;;;;;;;-4.52;100.00;103003.69;6224372;23;20016;-96
2024/01/09 00:02:41;;;;;;;6.18;2.88;;;;;;;-4.53;100.00;103013.47;6218087;22;20012;-95
2024/01/09 00:05:07;;;;;;;6.65;2.72;;;;;;;-4.52;100.00;103015.28;6218963;23;19996;-95
2024/01/09 00:07:32;;;;;;;4.50;2.33;;;;;;;-4.56;100.00;103005.38;6218095;23;20023;-96
2024/01/09 00:09:58;;;;;;;6.15;2.72;;;;;;;-4.47;100.00;103015.38;6207981;23;20031;-96
2024/01/09 00:12:24;;;;;;;6.65;3.35;;;;;;;-4.54;100.00;103014.34;6231252;23;20016;-95
2024/01/09 00:14:50;;;;;;;4.20;2.42;;;;;;;-4.69;100.00;102993.59;6233052;23;20012;-96
2024/01/09 00:17:16;;;;;;;6.40;2.58;;;;;;;-4.64;100.00;102999.91;6223396;23;20012;-94
2024/01/09 00:19:42;;;;;;;4.47;2.42;;;;;;;-4.55;100.00;103008.97;6199368;23;20015;-94
2024/01/09 00:22:07;;;;;;;8.20;3.10;;;;;;;-4.57;100.00;103011.63;6223910;23;20004;-94
2024/01/09 00:24:32;;;;;;;6.25;2.92;;;;;;;-4.65;100.00;103002.56;6198682;23;20012;-95
2024/01/09 00:26:59;;;;;;;6.22;2.85;;;;;;;-4.63;100.00;103006.16;6199675;23;20451;-94
2024/01/09 00:29:35;;;;;;;8.35;2.72;;;;;;;-4.68;100.00;102998.03;6200456;23;20020;-95
2024/01/09 00:32:00;;;;;;;;;;;;;;;-4.57;100.00;103016.09;6200765;23;20030;-95
2024/01/09 00:34:25;;;;;;;4.82;2.35;;;;;;;-4.62;100.00;103013.31;6200965;23;19931;-95
2024/01/09 00:36:51;;;;;;;7.30;3.03;;;;;;;-4.69;100.00;103012.31;6225557;23;20039;-94
2024/01/09 00:39:16;;;;;;;6.32;2.88;;;;;;;-4.66;100.00;103019.47;6201440;23;20011;-94
2024/01/09 00:41:42;;;;;;;6.43;2.78;;;;;;;-4.69;100.00;102996.25;6200139;23;20388;-92
2024/01/09 00:44:11;;;;;;;8.68;3.45;;;;;;;-4.69;100.00;103004.28;6199350;23;20043;-92
2024/01/09 00:46:36;;;;;;;4.90;2.90;;;;;;;-4.65;100.00;103018.59;6198528;23;20344;-91
2024/01/09 00:49:02;;;;;;;5.80;2.88;;;;;;;-4.64;100.00;103012.34;6198640;23;20012;-91
2024/01/09 00:51:28;;;;;;;6.50;3.13;;;;;;;-4.69;100.00;103006.97;6198210;23;20012;-92
2024/01/09 00:53:55;;;;;;;6.00;3.55;;;;;;;-4.66;100.00;103011.44;6199437;23;20044;-91
2024/01/09 00:56:23;;;;;;;5.47;3.13;;;;;;;-4.78;100.00;103008.56;6205685;23;20019;-91
2024/01/09 00:58:48;;;;;;;7.15;2.80;;;;;;;-4.69;100.00;103016.72;6202501;23;20015;-91
2024/01/09 01:01:14;;;;;;;7.15;2.88;;;;;;;-4.75;100.00;103006.84;6222637;23;20031;-92
2024/01/09 01:03:40;;;;;;;4.18;2.42;;;;;;;-4.74;100.00;103007.72;6221589;23;20269;-91
2024/01/09 01:06:05;;;;;;;5.63;2.28;;;;;;;-4.74;100.00;103002.38;6222237;23;20008;-90
2024/01/09 01:08:31;;;;;;;8.30;2.95;;;;;;;-4.73;100.00;103005.06;6198105;23;20008;-91
2024/01/09 01:10:56;;;;;;;6.47;2.65;;;;;;;-4.81;100.00;103004.03;6222576;23;20114;-91
2024/01/09 01:13:22;;;;;;;7.53;2.78;;;;;;;-4.71;100.00;103014.00;6197683;23;20004;-90
2024/01/09 01:15:48;;;;;;;6.13;2.50;;;;;;;-4.78;100.00;103006.78;6196612;23;20015;-91
2024/01/09 01:18:13;;;;;;;6.35;2.80;;;;;;;-4.80;100.00;103012.06;6221666;23;20095;-91
2024/01/09 01:20:39;;;;;;;5.60;2.45;;;;;;;-4.83;100.00;103012.00;6197013;23;20083;-89
2024/01/09 01:23:04;;;;;;;5.20;2.75;;;;;;;-4.83;100.00;103000.44;6196531;23;20047;-91
2024/01/09 01:25:31;;;;;;;8.10;3.17;;;;;;;-4.78;100.00;102997.88;6196944;23;20012;-91
2024/01/09 01:27:56;;;;;;;4.80;2.40;;;;;;;-4.81;100.00;103012.94;6246550;23;20020;-91
2024/01/09 01:30:22;;;;;;;6.00;2.47;;;;;;;-4.84;100.00;103009.31;6196983;23;20012;-91
2024/01/09 01:32:47;;;;;;;7.47;2.30;;;;;;;-4.83;100.00;103013.81;6197187;23;20089;-91
2024/01/09 01:35:13;;;;;;;6.70;3.03;;;;;;;-4.86;100.00;103008.38;6197411;23;20004;-91
2024/01/09 01:37:38;;;;;;;9.07;3.65;;;;;;;-4.95;100.00;103006.44;6197442;23;20008;-90
2024/01/09 01:40:05;;;;;;;20.70;3.10;;;;;;;-4.91;100.00;103015.41;6205032;22;20051;-90
2024/01/09 01:42:31;;;;;;;8.23;2.17;;;;;;;-4.87;100.00;103010.16;6212711;23;20004;-90
2024/01/09 01:44:56;;;;;;;4.95;1.90;;;;;;;-4.85;100.00;103013.75;6219267;23;20023;-90
2024/01/09 01:47:22;;;;;;;4.25;2.30;;;;;;;-4.88;100.00;103012.81;6204861;23;20008;-89
2024/01/09 01:49:48;;;;;;;6.45;2.47;;;;;;;-4.92;100.00;103019.88;6198214;23;20018;-90
2024/01/09 01:52:14;;;;;;;5.72;2.80;;;;;;;-4.91;100.00;103024.31;6196272;23;20058;-90
2024/01/09 01:54:41;;;;;;;6.75;3.08;;;;;;;-4.94;100.00;103018.91;6196780;23;20018;-90
2024/01/09 01:57:10;;;;;;;5.63;2.88;;;;;;;-4.95;100.00;103017.13;6223865;23;20012;-90
2024/01/09 01:59:38;;;;;;;6.57;2.65;;;;;;;-5.00;100.00;103016.09;6196523;23;20031;-90
2024/01/09 02:02:07;;;;;;;5.95;2.10;;;;;;;-4.94;100.00;103016.25;6220729;23;20075;-90
2024/01/09 02:04:35;;;;;;;5.53;2.80;;;;;;;-4.93;100.00;103018.06;6249283;23;20068;-93
2024/01/09 02:07:00;;;;;;;9.27;3.45;;;;;;;-4.99;100.00;103013.47;6222777;23;20019;-92
2024/01/09 02:09:28;;;;;;;5.20;2.45;;;;;;;-5.07;100.00;103014.19;6197532;23;20003;-92
2024/01/09 02:11:54;;;;;;;3.25;2.17;;;;;;;-5.03;100.00;102995.59;6221848;23;20042;-93
2024/01/09 02:14:19;;;;;;;9.02;3.17;;;;;;;-5.11;100.00;102997.22;6197211;23;20329;-93
2024/01/09 02:16:45;;;;;;;9.60;2.78;;;;;;;-5.09;100.00;103008.81;6197857;23;20008;-93
2024/01/09 02:19:10;;;;;;;5.90;2.80;;;;;;;-5.13;100.00;103009.66;6198521;23;20450;-93
2024/01/09 02:21:36;;;;;;;6.40;2.95;;;;;;;-5.09;100.00;103005.25;6226026;23;20447;-93
2024/01/09 02:24:02;;;;;;;6.05;2.42;;;;;;;-5.17;100.00;103002.41;6199180;23;20008;-93
2024/01/09 02:26:34;;;;;;;8.18;3.03;;;;;;;-5.14;100.00;103007.81;6198664;23;20008;-92
2024/01/09 02:29:05;;;;;;;8.57;2.80;;;;;;;-5.14;100.00;103006.94;6223334;23;20016;-92
2024/01/09 02:31:32;;;;;;;6.00;2.72;;;;;;;-5.09;100.00;102999.91;6222278;23;20086;-92
2024/01/09 02:33:59;;;;;;;10.77;2.30;;;;;;;-5.13;100.00;103004.31;6223232;23;20015;-92
2024/01/09 02:36:25;;;;;;;6.90;2.83;;;;;;;-5.18;100.00;103004.19;6222487;23;20008;-92
2024/01/09 02:38:50;;;;;;;5.93;2.70;;;;;;;-5.20;100.00;102991.66;6198124;23;20011;-93
2024/01/09 02:41:15;;;;;;;5.18;2.47;;;;;;;-5.28;100.00;102986.19;6222883;23;20007;-92
2024/01/09 02:43:41;;;;;;;7.85;2.33;;;;;;;-5.24;100.00;102987.16;6197336;23;20012;-93
2024/01/09 02:46:06;;;;;;;5.43;2.30;;;;;;;-5.17;100.00;102984.63;6197754;23;20161;-94
2024/01/09 02:48:33;;;;;;;4.47;2.55;;;;;;;-5.16;100.00;102996.22;6197630;23;20008;-92
2024/01/09 02:50:58;;;;;;;5.80;2.45;;;;;;;-5.28;100.00;102979.94;6222845;23;20145;-92
2024/01/09 02:53:24;;;;;;;4.35;2.20;;;;;;;-5.25;100.00;102988.00;6223241;23;20012;-92
2024/01/09 02:55:49;;;;;;;5.40;2.65;;;;;;;-5.27;100.00;103000.44;6199605;23;20054;-91
2024/01/09 02:58:15;;;;;;;6.88;2.78;;;;;;;-5.23;100.00;102983.59;6201477;23;20004;-92
2024/01/09 03:00:40;;;;;;;7.60;2.70;;;;;;;-5.26;100.00;102994.25;6217156;23;20040;-94
2024/01/09 03:03:06;;;;;;;5.10;2.70;;;;;;;-5.31;100.00;102978.13;6206495;23;20004;-92
2024/01/09 03:05:31;;;;;;;6.18;2.47;;;;;;;-5.35;100.00;102990.47;6222840;23;20044;-92
2024/01/09 03:07:56;;;;;;;6.93;3.25;;;;;;;-5.35;100.00;102981.56;6197603;23;20015;-93
2024/01/09 03:10:22;;;;;;;7.75;3.08;;;;;;;-5.31;100.00;102980.78;6197771;23;20008;-92
2024/01/09 03:12:47;;;;;;;11.07;3.30;;;;;;;-5.39;100.00;102979.72;6197599;23;20004;-92
2024/01/09 03:15:13;;;;;;;6.32;3.13;;;;;;;-5.42;100.00;102982.31;6197209;23;20492;-92
2024/01/09 03:17:38;;;;;;;6.30;3.10;;;;;;;-5.43;100.00;102978.72;6198153;23;20016;-93
2024/01/09 03:20:06;;;;;;;9.05;2.28;;;;;;;-5.38;100.00;102989.50;6197823;23;20004;-94
2024/01/09 03:22:31;;;;;;;9.07;2.83;;;;;;;-5.39;100.00;102991.28;6196574;23;20038;-93
2024/01/09 03:24:58;;;;;;;5.25;3.00;;;;;;;-5.38;100.00;102971.75;6197004;23;20012;-93
2024/01/09 03:27:25;;;;;;;6.43;2.80;;;;;;;-5.40;100.00;102978.78;6196754;23;20051;-94
2024/01/09 03:29:50;;;;;;;7.18;2.50;;;;;;;-5.44;100.00;102976.06;6197500;23;20012;-93
2024/01/09 03:32:16;;;;;;;4.70;2.70;;;;;;;-5.44;100.00;102990.28;6196529;23;20370;-93
2024/01/09 03:34:41;;;;;;;9.73;3.13;;;;;;;-5.42;100.00;102985.88;6197218;23;20339;-93
2024/01/09 03:37:07;;;;;;;6.70;2.63;;;;;;;-5.46;100.00;102980.44;6198119;23;20016;-93
2024/01/09 03:39:32;;;;;;;6.28;2.83;;;;;;;-5.42;100.00;102985.00;6197385;23;20039;-92
2024/01/09 03:41:58;;;;;;;6.35;2.85;;;;;;;-5.45;100.00;102985.81;6223209;23;20011;-93
2024/01/09 03:44:23;;;;;;;5.20;3.13;;;;;;;-5.44;100.00;102987.63;6198383;23;20019;-92
2024/01/09 03:46:49;;;;;;;6.88;2.67;;;;;;;-5.44;100.00;102981.41;6199947;23;20471;-94
2024/01/09 03:49:14;;;;;;;7.40;3.75;;;;;;;-5.44;100.00;102992.97;6209683;23;20501;-93
2024/01/09 03:51:40;;;;;;;7.38;2.67;;;;;;;-5.43;100.00;102992.06;6206894;23;20012;-90
2024/01/09 03:54:05;;;;;;;9.40;3.15;;;;;;;-5.44;100.00;103000.97;6230561;23;20095;-91
2024/01/09 03:56:31;;;;;;;8.40;3.35;;;;;;;-5.47;100.00;102995.56;6230312;23;20008;-90
2024/01/09 03:58:57;;;;;;;7.55;3.17;;;;;;;-5.49;100.00;102996.38;6198036;23;20012;-90
2024/01/09 04:01:22;;;;;;;6.05;3.15;;;;;;;-5.52;100.00;102989.22;6222469;23;20097;-90
2024/01/09 04:03:48;;;;;;;6.70;2.90;;;;;;;-5.56;100.00;102984.66;6222281;23;20000;-89
2024/01/09 04:06:13;;;;;;;8.20;2.80;;;;;;;-5.55;100.00;102983.81;6197085;23;20114;-91
2024/01/09 04:08:39;;;;;;;8.13;3.67;;;;;;;-5.57;100.00;102993.56;6222089;23;20069;-91
2024/01/09 04:11:04;;;;;;;7.82;2.92;;;;;;;-5.49;100.00;102991.03;6197367;23;20015;-91
2024/01/09 04:13:30;;;;;;;6.30;3.25;;;;;;;-5.56;100.00;102982.00;6222450;23;20012;-91
2024/01/09 04:15:55;;;;;;;6.05;3.25;;;;;;;-5.64;100.00;102975.59;6222161;23;20015;-91
2024/01/09 04:18:22;;;;;;;5.93;3.25;;;;;;;-5.57;100.00;102985.56;6196827;23;20030;-92
2024/01/09 04:20:49;;;;;;;8.15;2.95;;;;;;;-5.57;100.00;102985.56;6196873;23;20008;-91
2024/01/09 04:23:14;;;;;;;6.47;2.95;;;;;;;-5.68;100.00;102971.06;6222111;23;20336;-91
2024/01/09 04:25:39;;;;;;;8.27;3.15;;;;;;;-5.69;100.00;102969.25;6197046;23;20012;-91
2024/01/09 04:28:05;;;;;;;7.28;2.65;;;;;;;-5.56;100.00;102984.66;6197234;23;20095;-91
2024/01/09 04:30:30;;;;;;;7.20;3.35;;;;;;;-5.61;100.00;102979.22;6221523;23;20004;-91
2024/01/09 04:32:56;;;;;;;7.57;3.75;;;;;;;-5.60;100.00;102980.16;6196308;23;20344;-91
2024/01/09 04:35:21;;;;;;;4.82;2.63;;;;;;;-5.60;100.00;102982.81;6196499;23;20008;-91
2024/01/09 04:37:47;;;;;;;14.98;3.65;;;;;;;-5.63;100.00;102964.97;6196827;23;20019;-91
2024/01/09 04:40:12;;;;;;;7.80;2.90;;;;;;;-5.61;100.00;102981.91;6196967;23;20007;-93
2024/01/09 04:42:38;;;;;;;9.38;2.80;;;;;;;-5.67;100.00;102960.44;6223038;23;20024;-92
2024/01/09 04:45:03;;;;;;;6.93;2.95;;;;;;;-5.67;100.00;102979.13;6198531;23;20095;-93
2024/01/09 04:47:29;;;;;;;8.70;3.15;;;;;;;-5.69;100.00;102966.59;6198003;23;20004;-93
2024/01/09 04:49:55;;;;;;;8.90;3.47;;;;;;;-5.65;100.00;102965.81;6197874;23;20008;-91
2024/01/09 04:52:20;;;;;;;11.05;3.92;;;;;;;-5.65;100.00;102977.38;6222749;23;20031;-92
2024/01/09 04:54:46;;;;;;;7.55;2.97;;;;;;;-5.65;100.00;102976.47;6222817;23;20332;-93
2024/01/09 04:57:11;;;;;;;6.03;2.70;;;;;;;-5.69;100.00;102969.25;6223217;23;20087;-93
2024/01/09 04:59:37;;;;;;;9.70;3.30;;;;;;;-5.69;100.00;102971.94;6222688;23;20068;-93
2024/01/09 05:02:03;;;;;;;5.50;3.20;;;;;;;-5.69;100.00;102964.81;6197684;23;20106;-93
2024/01/09 05:04:29;;;;;;;7.88;3.83;;;;;;;-5.67;100.00;102972.84;6197485;23;20011;-93
2024/01/09 05:06:54;;;;;;;8.10;3.30;;;;;;;-5.70;100.00;102967.47;6222345;23;20401;-91
2024/01/09 05:09:20;;;;;;;4.90;2.63;;;;;;;-5.69;100.00;102974.59;6196612;23;20103;-91
2024/01/09 05:11:45;;;;;;;9.48;3.60;;;;;;;-5.79;100.00;102976.16;6196225;23;20099;-91
2024/01/09 05:14:11;;;;;;;5.40;2.88;;;;;;;-5.70;100.00;102967.47;6196448;23;20008;-91
2024/01/09 05:16:36;;;;;;;5.88;2.95;;;;;;;-5.70;100.00;102981.72;6196523;23;20431;-91
2024/01/09 05:19:02;;;;;;;10.40;3.65;;;;;;;-5.84;100.00;102962.69;6221529;23;20007;-91
2024/01/09 05:21:27;;;;;;;7.18;3.00;;;;;;;-5.76;100.00;102971.78;6195398;23;20004;-91
2024/01/09 05:23:52;;;;;;;6.13;2.65;;;;;;;-5.72;100.00;102964.78;6197364;23;20032;-92
2024/01/09 05:26:18;;;;;;;9.23;4.47;;;;;;;-5.73;100.00;102963.84;6196710;23;20023;-94
2024/01/09 05:28:44;;;;;;;9.40;3.63;;;;;;;-5.75;100.00;102972.72;6198127;23;20027;-89
2024/01/09 05:31:10;;;;;;;9.60;3.53;;;;;;;-5.77;100.00;102974.41;6223771;23;20012;-91
2024/01/09 05:33:35;;;;;;;6.30;2.85;;;;;;;-5.82;100.00;102969.00;6201014;23;20035;-93
2024/01/09 05:36:01;;;;;;;11.65;2.88;;;;;;;-5.83;100.00;102967.19;6228827;23;20011;-92
2024/01/09 05:38:26;;;;;;;8.57;3.67;;;;;;;-5.80;100.00;102972.59;6202472;23;20008;-92
2024/01/09 05:40:52;;;;;;;10.20;3.72;;;;;;;-5.82;100.00;102978.75;6204273;23;20004;-93
2024/01/09 05:43:17;;;;;;;8.55;3.78;;;;;;;-5.84;100.00;102981.38;6209252;23;20027;-95
2024/01/09 05:45:43;;;;;;;12.70;3.50;;;;;;;-5.84;100.00;102969.81;6231907;23;20003;-92
2024/01/09 05:48:08;;;;;;;10.95;3.60;;;;;;;-5.84;100.00;102975.16;6205744;23;20011;-95
2024/01/09 05:50:34;;;;;;;11.50;3.85;;;;;;;-5.85;100.00;102973.34;6220274;23;20035;-86
2024/01/09 05:53:01;;;;;;;9.93;4.03;;;;;;;-5.85;100.00;102968.94;6193431;23;20012;-90
2024/01/09 05:55:28;;;;;;;7.93;4.03;;;;;;;-5.92;100.00;102962.56;6221210;23;20018;-90
2024/01/09 05:57:54;;;;;;;5.45;2.85;;;;;;;-5.85;100.00;102973.34;6221259;23;20012;-90
2024/01/09 06:00:19;;;;;;;10.65;4.30;;;;;;;-5.88;100.00;102974.19;6221525;23;20539;-89
2024/01/09 06:02:45;;;;;;;8.38;3.63;;;;;;;-5.87;100.00;102965.34;6220413;23;20001;-89
2024/01/09 06:05:10;;;;;;;11.15;3.83;;;;;;;-5.87;100.00;102957.34;6196029;23;20012;-89
2024/01/09 06:07:36;;;;;;;8.00;3.42;;;;;;;-5.83;100.00;102980.53;6195876;23;20022;-89
2024/01/09 06:10:02;;;;;;;9.18;3.95;;;;;;;-5.87;100.00;102980.41;6220832;23;20071;-89
2024/01/09 06:12:27;;;;;;;8.38;3.60;;;;;;;-5.85;100.00;102979.59;6195630;23;20505;-90
2024/01/09 06:14:53;;;;;;;11.35;4.03;;;;;;;-5.88;100.00;102979.53;6195380;23;20011;-89
2024/01/09 06:17:18;;;;;;;13.50;4.38;;;;;;;-5.96;100.00;102967.81;6220640;23;20012;-90
2024/01/09 06:19:44;;;;;;;8.55;3.47;;;;;;;-5.93;100.00;102975.84;6195328;23;20008;-89
2024/01/09 06:22:09;;;;;;;7.70;3.75;;;;;;;-5.94;100.00;102968.69;6195032;23;20008;-90
2024/01/09 06:24:35;;;;;;;8.65;3.50;;;;;;;-5.88;100.00;102982.19;6196087;23;20007;-90
2024/01/09 06:27:04;;;;;;;6.80;3.83;;;;;;;-5.90;100.00;102975.94;6220280;23;20008;-90
2024/01/09 06:29:29;;;;;;;11.27;4.45;;;;;;;-5.92;100.00;102978.56;6220884;23;20032;-91
2024/01/09 06:31:55;;;;;;;7.13;3.17;;;;;;;-5.89;100.00;102984.81;6195753;23;20099;-90
2024/01/09 06:34:20;;;;;;;9.80;4.32;;;;;;;-5.90;100.00;102986.59;6220919;23;20397;-91
2024/01/09 06:36:46;;;;;;;13.23;4.20;;;;;;;-5.96;100.00;102971.31;6221233;23;20016;-90
2024/01/09 06:39:12;;;;;;;10.27;4.30;;;;;;;-5.95;100.00;102970.47;6196356;23;20090;-90
2024/01/09 06:41:37;;;;;;;6.90;3.45;;;;;;;-5.95;100.00;102972.22;6221034;23;20000;-90
2024/01/09 06:44:03;;;;;;;9.77;4.22;;;;;;;-6.00;100.00;102971.25;6198328;23;20062;-93
2024/01/09 06:46:29;;;;;;;10.05;4.72;;;;;;;-5.92;100.00;102994.56;6223085;23;20011;-93
2024/01/09 06:48:54;;;;;;;6.97;3.97;;;;;;;-5.96;100.00;102989.13;6198068;23;20012;-95
2024/01/09 06:51:20;;;;;;;10.25;3.63;;;;;;;-5.98;100.00;102990.88;6198295;23;20474;-95
2024/01/09 06:53:45;;;;;;;11.27;4.22;;;;;;;-5.99;100.00;102981.94;6198539;23;20023;-95
2024/01/09 06:56:12;;;;;;;13.07;3.55;;;;;;;-5.94;100.00;102985.59;6199085;23;20004;-95
2024/01/09 06:58:37;;;;;;;20.73;3.95;;;;;;;-5.93;100.00;102995.41;6198579;23;20023;-96
2024/01/09 07:01:04;;;;;;;8.20;4.05;;;;;;;-5.92;100.00;102994.56;6199133;23;20008;-96
2024/01/09 07:03:30;;;;;;;11.73;4.35;;;;;;;-5.99;100.00;102981.94;6223705;23;20004;-94
2024/01/09 07:05:55;;;;;;;9.57;3.92;;;;;;;-6.01;100.00;102989.03;6197936;23;20008;-94
2024/01/09 07:08:22;;;;;;;6.13;3.30;;;;;;;-5.89;100.00;103004.38;6223272;23;20004;-94
2024/01/09 07:10:47;;;;;;;7.65;3.05;;;;;;;-5.96;100.00;102999.81;6222642;23;20035;-94
2024/01/09 07:13:13;;;;;;;6.40;3.95;;;;;;;-6.02;100.00;102999.66;6197420;23;20452;-94
2024/01/09 07:15:38;;;;;;;8.40;3.78;;;;;;;-6.04;100.00;102993.38;6221932;23;20008;-95
2024/01/09 07:18:04;;;;;;;9.70;4.05;;;;;;;-5.98;100.00;103009.53;6223571;23;20000;-94
2024/01/09 07:20:29;;;;;;;11.50;4.60;;;;;;;-6.00;100.00;103005.91;6222619;23;20012;-95
2024/01/09 07:22:55;;;;;;;9.85;4.72;;;;;;;-6.00;100.00;103005.91;6201583;23;20023;-93
2024/01/09 07:25:20;;;;;;;10.32;4.55;;;;;;;-6.03;100.00;102995.16;6198579;23;20091;-94
2024/01/09 07:27:46;;;;;;;10.32;3.63;;;;;;;-5.96;100.00;103007.81;6202504;23;20352;-95
2024/01/09 07:30:12;;;;;;;11.25;4.05;;;;;;;-5.95;100.00;103005.16;6197486;23;20038;-92
2024/01/09 07:32:38;;;;;;;10.40;4.40;;;;;;;-5.97;100.00;103006.00;6225186;23;20035;-94
2024/01/09 07:35:04;;;;;;;7.68;3.50;;;;;;;-6.04;100.00;103004.06;6201589;23;20540;-93
2024/01/09 07:37:30;;;;;;;13.38;4.03;;;;;;;-6.02;100.00;103008.53;6224929;23;20008;-94
2024/01/09 07:39:55;;;;;;;10.50;4.43;;;;;;;-5.94;100.00;103025.59;6205189;23;20091;-89
2024/01/09 07:42:21;;;;;;;6.95;3.60;;;;;;;-5.97;100.00;103032.66;6198792;23;20031;-89
2024/01/09 07:44:46;;;;;;;7.97;3.95;;;;;;;-5.99;100.00;103034.38;6202528;23;20066;-88
2024/01/09 07:47:12;;;;;;;10.60;3.90;;;;;;;-6.02;100.00;103027.19;6201509;23;20160;-89
2024/01/09 07:49:38;;;;;;;8.95;3.72;;;;;;;-5.98;100.00;103031.78;6198726;23;20098;-89
2024/01/09 07:52:04;;;;;;;11.48;3.95;;;;;;;-5.98;100.00;103034.44;6228348;23;20008;-94
2024/01/09 07:54:30;;;;;;;12.18;4.72;;;;;;;-5.91;100.00;103030.13;6224530;23;20004;-86
2024/01/09 07:56:56;;;;;;;11.00;4.43;;;;;;;-5.93;100.00;103032.75;6221067;23;20432;-87
2024/01/09 07:59:22;;;;;;;7.55;3.85;;;;;;;-5.99;100.00;103034.38;6223853;23;20091;-92
2024/01/09 08:01:54;;;;;;;14.73;4.00;;;;;;;-5.94;100.00;103036.25;6255476;23;20005;-92
2024/01/09 08:04:22;;;;;;;14.85;5.10;;;;;;;-5.95;100.00;103041.56;6199999;23;20004;-94
2024/01/09 08:06:50;;;;;;;10.70;4.13;;;;;;;-5.87;100.00;103028.41;6224539;23;20143;-92
2024/01/09 08:09:19;;;;;;;10.32;4.18;;;;;;;-5.85;100.00;103040.94;6220986;23;20008;-86
2024/01/09 08:11:45;;;;;;;10.68;4.10;;;;;;;-5.87;100.00;103032.00;6220001;23;20375;-87
2024/01/09 08:14:14;;;;;;;8.55;4.18;;;;;;;-5.91;100.00;103027.44;6223760;23;20035;-88
2024/01/09 08:16:40;;;;;;;7.00;3.95;;;;;;;-5.88;100.00;103043.53;6223601;23;20019;-90
2024/01/09 08:19:08;;;;;;;11.90;3.67;;;;;;;-5.82;100.00;103045.44;6197251;23;20435;-90
2024/01/09 08:21:37;;;;;;;10.27;3.78;;;;;;;-5.81;100.00;103037.47;6223990;23;20011;-90
2024/01/09 08:24:03;;;;;;;7.60;4.15;;;;;;;-5.82;100.00;103037.44;6221303;23;20015;-87
2024/01/09 08:26:28;;;;;;;11.38;4.15;;;;;;;-5.73;100.00;103045.66;6220544;23;20008;-87
2024/01/09 08:28:54;;;;;;;6.88;3.70;;;;;;;-5.73;100.00;103043.88;6220874;23;20383;-87
2024/01/09 08:31:20;;;;;;;11.23;3.92;;;;;;;-5.67;100.00;103048.47;6220734;23;20445;-87
2024/01/09 08:33:45;;;;;;;7.88;4.35;;;;;;;-5.68;100.00;103049.34;6196606;23;20478;-88
2024/01/09 08:36:11;;;;;;;8.63;4.55;;;;;;;-5.64;100.00;103051.22;6196100;23;20074;-89
2024/01/09 08:38:37;;;;;;;6.70;3.03;;;;;;;-5.54;100.00;103053.22;6221565;23;20008;-89
2024/01/09 08:41:02;;;;;;;6.65;3.22;;;;;;;-5.55;100.00;103061.22;6195529;23;20015;-89
2024/01/09 08:43:29;;;;;;;11.95;4.57;;;;;;;-5.59;100.00;103054.91;6195820;23;20015;-88
2024/01/09 08:45:54;;;;;;;12.05;4.53;;;;;;;-5.61;100.00;103053.94;6220733;23;20066;-87
2024/01/09 08:48:20;;;;;;;9.32;3.80;;;;;;;-5.52;100.00;103055.94;6196462;23;20011;-86
2024/01/09 08:50:45;;;;;;;8.68;4.53;;;;;;;-5.56;100.00;103044.31;6195406;23;20012;-86
2024/01/09 08:53:11;;;;;;;7.82;3.50;;;;;;;-5.47;100.00;103058.72;6196023;23;20047;-86
2024/01/09 08:55:36;;;;;;;12.15;4.32;;;;;;;-5.53;100.00;103059.47;6197013;23;20077;-87
2024/01/09 08:58:02;;;;;;;12.88;4.88;;;;;;;-5.44;100.00;103056.13;6201629;23;20004;-85
2024/01/09 09:00:27;;;;;;;10.95;3.80;;;;;;;-5.46;100.00;103061.44;6218528;23;20035;-85
2024/01/09 09:02:53;;;;;;;12.77;4.72;;;;;;;-5.47;100.00;103066.72;6234241;23;20004;-86
2024/01/09 09:05:19;;;;;;;14.45;5.68;;;;;;;-5.42;100.00;103051.72;6197831;23;20019;-86
2024/01/09 09:07:45;;;;;;;6.57;3.10;;;;;;;-5.42;100.00;103044.59;6196770;23;20023;-88
2024/01/09 09:10:10;;;;;;;13.77;5.18;;;;;;;-5.36;100.00;103059.88;6221625;23;20439;-88
2024/01/09 09:12:36;;;;;;;8.70;3.80;;;;;;;-5.27;100.00;103045.81;6196439;23;20039;-86
2024/01/09 09:15:03;;;;;;;12.18;4.75;;;;;;;-5.22;100.00;103063.72;6195940;23;20719;-88
2024/01/09 09:17:29;;;;;;;25.13;3.15;;;;;;;-5.20;100.00;103056.69;6220665;23;20000;-87
2024/01/09 09:19:54;;;;;;;11.40;4.60;;;;;;;-5.14;100.00;103068.34;6195877;23;20016;-87
2024/01/09 09:22:23;;;;;;;8.38;3.70;;;;;;;-5.09;100.00;103062.22;6221389;23;20087;-87
2024/01/09 09:24:49;;;;;;;12.40;4.45;;;;;;;-5.07;100.00;103064.94;6220514;23;20004;-86
2024/01/09 09:27:15;;;;;;;9.05;3.90;;;;;;;-5.11;100.00;103060.41;6195112;23;20020;-87
2024/01/09 09:29:41;;;;;;;10.77;4.57;;;;;;;-5.09;100.00;103064.91;6220364;23;20066;-87
2024/01/09 09:32:07;;;;;;;5.78;2.08;;;;;;;-4.92;100.00;103065.28;6220213;23;20035;-87
2024/01/09 09:34:32;;;;;;;10.23;4.22;;;;;;;-4.93;100.00;103047.44;6195319;23;20012;-88
2024/01/09 09:36:57;;;;;;;10.57;4.57;;;;;;;-4.82;100.00;103052.97;6195569;23;20047;-87
2024/01/09 09:39:23;;;;;;;15.80;4.32;;;;;;;-4.72;100.00;103046.06;6220150;23;20008;-87
2024/01/09 09:41:56;;;;;;;7.63;3.58;;;;;;;-4.59;100.00;103058.81;6194793;23;20086;-87
2024/01/09 09:44:25;;;;;;;11.93;5.22;;;;;;;-4.51;100.00;103057.19;6220211;23;20011;-88
2024/01/09 09:46:51;;;;;;;12.30;5.13;;;;;;;-4.21;100.00;103055.03;6195196;23;20455;-87
2024/01/09 09:49:20;;;;;;;12.18;4.93;;;;;;;-4.33;100.00;103056.63;6219575;23;20000;-90
2024/01/09 09:51:47;;;;;;;12.30;4.20;;;;;;;-4.05;100.00;103054.41;6220576;23;20008;-88
2024/01/09 09:54:14;;;;;;;11.45;4.53;;;;;;;-4.03;100.00;103062.47;6195832;23;20008;-90
2024/01/09 09:56:41;;;;;;;9.07;4.18;;;;;;;-3.98;100.00;103055.44;6220506;23;20004;-88
2024/01/09 09:59:10;;;;;;;8.27;4.53;;;;;;;-3.91;100.00;103052.00;6220047;23;20082;-89
2024/01/09 10:01:37;;;;;;;12.85;4.97;;;;;;;-3.85;100.00;103053.84;6195449;23;20004;-87
2024/01/09 10:04:27;;;;;;;11.23;4.97;;;;;;;-3.72;100.00;103053.22;6220541;23;20012;-90
2024/01/09 10:06:56;;;;;;;7.22;3.50;;;;;;;-3.60;100.00;103058.72;6220308;23;20004;-90
2024/01/09 10:09:22;;;;;;;11.73;3.78;;;;;;;-3.63;100.00;103056.00;6220327;23;20008;-89
2024/01/09 10:11:51;;;;;;;10.57;4.30;;;;;;;-3.42;100.00;103057.22;6196686;23;20424;-88
2024/01/09 10:14:17;;;;;;;9.48;3.95;;;;;;;-3.58;100.00;103048.94;6221196;23;20016;-91
2024/01/09 10:16:49;;;;;;;11.60;4.75;;;;;;;-3.56;100.00;103044.53;6195169;23;20008;-90
2024/01/09 10:19:16;;;;;;;6.57;3.65;;;;;;;-3.50;100.00;103033.00;6219972;23;20138;-89
2024/01/09 10:21:41;;;;;;;6.32;3.33;;;;;;;-3.40;100.00;103031.34;6220903;23;20008;-90
2024/01/09 10:24:08;;;;;;;11.70;4.72;;;;;;;-3.36;99.89;103020.72;6195352;23;20015;-88
2024/01/09 10:26:33;;;;;;;8.20;3.38;;;;;;;-3.36;99.83;103019.78;6220808;23;20011;-90
2024/01/09 10:28:59;;;;;;;7.80;3.75;;;;;;;-3.17;99.25;103029.00;6196101;23;20016;-89
2024/01/09 10:31:24;;;;;;;9.90;3.65;;;;;;;-3.19;97.04;103022.72;6195369;23;20070;-91
2024/01/09 10:33:50;;;;;;;10.30;4.43;;;;;;;-3.25;98.67;103022.63;6195678;23;20036;-89
2024/01/09 10:36:16;;;;;;;13.00;4.18;;;;;;;-3.25;96.71;103027.97;6221267;23;20416;-91
2024/01/09 10:38:41;;;;;;;11.30;4.20;;;;;;;-3.09;97.11;103029.09;6223092;23;20453;-90
2024/01/09 10:41:17;;;;;;;7.35;3.63;;;;;;;-2.85;98.23;103026.72;6222314;23;20058;-90
2024/01/09 10:43:43;;;;;;;9.57;3.85;;;;;;;-2.78;96.22;103017.84;6202123;23;20743;-91
2024/01/09 10:46:09;;;;;;;10.45;4.88;;;;;;;-2.53;97.15;103015.44;6201107;23;20007;-89
2024/01/09 10:48:35;;;;;;;7.82;3.58;;;;;;;-2.54;94.64;103000.25;6222869;23;20012;-87
2024/01/09 10:51:02;;;;;;;9.20;3.70;;;;;;;-2.63;93.98;103016.22;6195769;23;20022;-90
2024/01/09 10:53:31;;;;;;;9.93;4.63;;;;;;;-2.20;93.10;103013.06;6220145;23;20008;-89
2024/01/09 10:56:00;;;;;;;8.52;3.92;;;;;;;-2.32;91.61;103014.75;6246207;23;20000;-91
2024/01/09 10:58:27;;;;;;;10.05;3.92;;;;;;;-2.49;90.49;103006.56;6223052;23;20004;-91
2024/01/09 11:00:52;;;;;;;10.05;3.28;;;;;;;-2.42;91.70;103002.16;6224456;23;20015;-92
2024/01/09 11:03:19;;;;;;;9.23;4.15;;;;;;;-2.52;89.22;102993.13;6201330;23;20004;-92
2024/01/09 11:05:48;;;;;;;8.75;4.43;;;;;;;-2.18;91.38;102992.50;6197763;23;20035;-92
2024/01/09 11:08:17;;;;;;;11.15;5.30;;;;;;;-1.95;90.85;102998.06;6224233;23;20012;-92
2024/01/09 11:10:44;;;;;;;9.88;4.30;;;;;;;-1.90;89.72;102985.59;6198574;23;20043;-91